createdAt,value
2022-11-30T00:01:42.149Z,7.15
2022-11-30T00:04:09.409Z,8.75
2022-11-30T00:06:36.289Z,8.18
2022-11-30T00:09:04.428Z,9.45
2022-11-30T00:11:31.330Z,9.43
2022-11-30T00:13:59.446Z,9.88
2022-11-30T00:16:27.609Z,8.48
2022-11-30T00:18:58.443Z,8.85
2022-11-30T00:21:25.315Z,9.32
2022-11-30T00:23:53.277Z,8.35
2022-11-30T00:26:22.882Z,9.43
2022-11-30T00:28:49.787Z,9.38
2022-11-30T00:31:18.126Z,9.35
2022-11-30T00:33:47.084Z,9.30
2022-11-30T00:36:20.671Z,8.82
2022-11-30T00:38:48.419Z,9.30
2022-11-30T00:41:15.801Z,8.80
2022-11-30T00:43:45.113Z,9.40
2022-11-30T00:46:13.274Z,9.75
2022-11-30T00:48:41.148Z,10.00
2022-11-30T00:51:12.659Z,9.15
2022-11-30T00:53:41.966Z,10.13
2022-11-30T00:56:09.254Z,9.38
2022-11-30T00:58:36.257Z,8.45
2022-11-30T01:01:03.609Z,7.88
2022-11-30T01:03:30.507Z,9.60
2022-11-30T01:06:10.422Z,9.05
2022-11-30T01:08:38.656Z,8.98
2022-11-30T01:11:14.748Z,8.88
2022-11-30T01:13:41.714Z,8.55
2022-11-30T01:16:11.194Z,8.60
2022-11-30T01:18:38.533Z,9.68
2022-11-30T01:21:08.454Z,8.07
2022-11-30T01:23:35.375Z,7.72
2022-11-30T01:26:02.286Z,10.38
2022-11-30T01:28:29.085Z,9.95
2022-11-30T01:31:01.823Z,7.72
2022-11-30T01:33:30.058Z,8.65
2022-11-30T01:36:06.568Z,8.57
2022-11-30T01:38:46.535Z,9.20
2022-11-30T01:41:21.808Z,7.90
2022-11-30T01:43:51.094Z,10.43
2022-11-30T01:46:24.713Z,7.65
2022-11-30T01:49:07.453Z,9.02
2022-11-30T01:51:45.909Z,8.38
2022-11-30T01:54:19.522Z,7.78
2022-11-30T01:56:56.419Z,10.30
2022-11-30T01:59:25.697Z,8.48
2022-11-30T02:01:53.743Z,9.23
2022-11-30T02:04:32.958Z,8.68
2022-11-30T02:07:02.050Z,8.90
2022-11-30T02:12:01.220Z,6.28
2022-11-30T02:14:42.876Z,8.52
2022-11-30T02:17:17.160Z,8.57
2022-11-30T02:20:07.241Z,8.75
2022-11-30T02:23:04.401Z,8.25
2022-11-30T02:25:55.553Z,7.68
2022-11-30T02:28:52.266Z,8.30
2022-11-30T02:31:25.178Z,8.38
2022-11-30T02:33:54.641Z,7.45
2022-11-30T02:36:22.728Z,7.03
2022-11-30T02:38:52.071Z,8.40
2022-11-30T02:41:18.856Z,8.13
2022-11-30T02:43:48.975Z,7.65
2022-11-30T02:46:41.700Z,7.78
2022-11-30T02:49:29.733Z,7.95
2022-11-30T02:51:58.301Z,7.60
2022-11-30T02:54:26.740Z,7.80
2022-11-30T02:56:55.029Z,8.57
2022-11-30T02:59:23.668Z,6.82
2022-11-30T03:01:50.490Z,8.43
2022-11-30T03:04:18.711Z,8.60
2022-11-30T03:06:45.464Z,9.05
2022-11-30T03:09:14.300Z,8.70
2022-11-30T03:11:41.075Z,7.82
2022-11-30T03:14:09.082Z,8.25
2022-11-30T03:16:37.914Z,8.63
2022-11-30T03:19:07.905Z,7.55
2022-11-30T03:21:34.665Z,7.90
2022-11-30T03:24:02.646Z,7.82
2022-11-30T03:26:29.679Z,6.30
2022-11-30T03:28:57.772Z,7.10
2022-11-30T03:31:25.852Z,7.53
2022-11-30T03:33:53.838Z,9.35
2022-11-30T03:36:20.588Z,7.80
2022-11-30T03:38:47.865Z,7.65
2022-11-30T03:41:16.522Z,7.78
2022-11-30T03:43:44.786Z,7.43
2022-11-30T03:46:13.674Z,7.93
2022-11-30T03:48:44.375Z,7.32
2022-11-30T03:51:12.858Z,7.93
2022-11-30T03:53:41.483Z,9.70
2022-11-30T03:56:10.935Z,6.80
2022-11-30T03:58:37.738Z,7.45
2022-11-30T04:01:07.638Z,7.38
2022-11-30T04:03:36.571Z,7.47
2022-11-30T04:06:05.679Z,6.75
2022-11-30T04:08:34.511Z,7.40
2022-11-30T04:11:02.410Z,7.97
2022-11-30T04:13:32.285Z,6.97
2022-11-30T04:15:59.251Z,7.93
2022-11-30T04:18:29.606Z,7.03
2022-11-30T04:20:58.266Z,6.43
2022-11-30T04:23:28.738Z,6.57
2022-11-30T04:25:56.469Z,7.22
2022-11-30T04:28:25.104Z,7.22
2022-11-30T04:30:53.711Z,6.80
2022-11-30T04:33:23.415Z,6.63
2022-11-30T04:36:00.122Z,6.75
2022-11-30T04:38:32.298Z,7.57
2022-11-30T04:40:59.185Z,6.75
2022-11-30T04:43:26.014Z,7.90
2022-11-30T04:45:54.322Z,7.70
2022-11-30T04:48:22.987Z,8.07
2022-11-30T04:50:49.720Z,7.47
2022-11-30T04:53:16.516Z,6.97
2022-11-30T04:55:43.310Z,7.32
2022-11-30T04:58:10.083Z,8.18
2022-11-30T05:00:38.172Z,7.35
2022-11-30T05:03:04.944Z,6.80
2022-11-30T05:05:31.961Z,7.68
2022-11-30T05:08:00.947Z,7.28
2022-11-30T05:10:29.988Z,7.80
2022-11-30T05:12:59.657Z,7.22
2022-11-30T05:15:28.521Z,8.57
2022-11-30T05:18:01.576Z,7.05
2022-11-30T05:20:29.092Z,7.03
2022-11-30T05:22:55.913Z,6.55
2022-11-30T05:25:24.179Z,7.18
2022-11-30T05:27:50.945Z,6.68
2022-11-30T05:30:19.146Z,6.25
2022-11-30T05:32:47.207Z,8.20
2022-11-30T05:35:14.014Z,7.05
2022-11-30T05:37:41.004Z,7.90
2022-11-30T05:40:09.500Z,7.15
2022-11-30T05:42:37.565Z,6.40
2022-11-30T05:45:05.024Z,7.35
2022-11-30T05:47:33.280Z,7.68
2022-11-30T05:50:00.101Z,7.03
2022-11-30T05:52:28.122Z,6.25
2022-11-30T05:54:56.178Z,7.10
2022-11-30T05:57:23.050Z,6.70
2022-11-30T05:59:49.840Z,7.60
2022-11-30T06:02:19.665Z,6.45
2022-11-30T06:04:51.236Z,6.00
2022-11-30T06:07:17.989Z,7.45
2022-11-30T06:09:44.776Z,5.97
2022-11-30T06:12:13.417Z,5.60
2022-11-30T06:14:40.373Z,6.97
2022-11-30T06:17:09.762Z,6.07
2022-11-30T06:19:38.226Z,6.93
2022-11-30T06:22:05.019Z,6.22
2022-11-30T06:24:34.463Z,5.95
2022-11-30T06:27:02.490Z,6.85
2022-11-30T06:29:29.239Z,6.15
2022-11-30T06:31:59.242Z,6.70
2022-11-30T06:34:27.406Z,5.88
2022-11-30T06:36:54.147Z,5.13
2022-11-30T06:39:43.319Z,5.35
2022-11-30T06:42:13.677Z,6.20
2022-11-30T06:44:40.419Z,5.72
2022-11-30T06:47:07.228Z,4.95
2022-11-30T06:49:35.533Z,4.85
2022-11-30T06:52:02.343Z,5.35
2022-11-30T06:54:30.301Z,5.80
2022-11-30T06:56:57.932Z,4.75
2022-11-30T06:59:26.336Z,5.40
2022-11-30T07:01:54.394Z,5.57
2022-11-30T07:04:21.186Z,4.70
2022-11-30T07:06:48.106Z,4.97
2022-11-30T07:09:16.391Z,5.32
2022-11-30T07:11:43.292Z,4.07
2022-11-30T07:14:11.395Z,4.47
2022-11-30T07:16:38.298Z,5.93
2022-11-30T07:19:06.425Z,8.20
2022-11-30T07:21:33.243Z,6.32
2022-11-30T07:24:19.791Z,7.95
2022-11-30T07:26:48.479Z,6.65
2022-11-30T07:29:15.261Z,20.60
2022-11-30T07:31:42.080Z,21.25
2022-11-30T07:34:10.091Z,9.93
2022-11-30T07:36:38.058Z,7.55
2022-11-30T07:39:06.287Z,7.97
2022-11-30T07:41:34.500Z,8.13
2022-11-30T07:44:07.623Z,7.50
2022-11-30T07:46:36.437Z,8.82
2022-11-30T07:49:04.747Z,21.52
2022-11-30T07:51:34.173Z,16.27
2022-11-30T07:54:02.965Z,10.98
2022-11-30T07:56:29.991Z,9.43
2022-11-30T07:59:00.920Z,8.63
2022-11-30T08:01:32.691Z,7.80
2022-11-30T08:04:00.914Z,7.53
2022-11-30T08:06:30.240Z,7.10
2022-11-30T08:09:01.744Z,7.22
2022-11-30T08:11:33.182Z,7.63
2022-11-30T08:14:00.878Z,6.55
2022-11-30T08:16:30.281Z,11.48
2022-11-30T08:18:58.468Z,33.58
2022-11-30T08:21:27.870Z,23.98
2022-11-30T08:23:57.116Z,12.45
2022-11-30T08:26:27.634Z,8.10
2022-11-30T08:28:56.235Z,7.32
2022-11-30T08:31:31.023Z,5.97
2022-11-30T08:34:02.441Z,6.85
2022-11-30T08:36:30.922Z,6.65
2022-11-30T08:39:00.370Z,6.38
2022-11-30T08:41:27.196Z,6.72
2022-11-30T08:43:54.515Z,6.10
2022-11-30T08:49:27.034Z,7.65
2022-11-30T08:54:46.265Z,22.63
2022-11-30T08:57:17.761Z,19.95
2022-11-30T08:59:44.858Z,11.73
2022-11-30T09:02:13.997Z,7.32
2022-11-30T09:07:10.963Z,6.43
2022-11-30T09:09:38.017Z,6.63
2022-11-30T09:12:07.525Z,6.03
2022-11-30T09:14:34.371Z,7.43
2022-11-30T09:17:04.918Z,6.03
2022-11-30T09:19:31.693Z,5.68
2022-11-30T09:21:58.489Z,6.43
2022-11-30T09:24:25.292Z,7.05
2022-11-30T09:26:56.912Z,6.63
2022-11-30T09:29:24.035Z,5.78
2022-11-30T09:31:52.831Z,5.53
2022-11-30T09:34:19.740Z,6.30
2022-11-30T09:36:47.802Z,6.30
2022-11-30T09:39:14.567Z,6.65
2022-11-30T09:42:09.243Z,6.30
2022-11-30T09:45:00.071Z,5.10
2022-11-30T09:47:41.976Z,5.47
2022-11-30T09:50:15.706Z,6.13
2022-11-30T09:52:58.587Z,7.35
2022-11-30T09:55:30.627Z,4.97
2022-11-30T09:58:02.843Z,6.93
2022-11-30T10:00:31.227Z,6.18
2022-11-30T10:03:04.577Z,8.63
2022-11-30T10:05:54.286Z,8.38
2022-11-30T10:08:51.727Z,7.63
2022-11-30T10:11:28.232Z,6.45
2022-11-30T10:14:11.780Z,5.88
2022-11-30T10:16:58.349Z,6.30
2022-11-30T10:19:36.916Z,8.02
2022-11-30T10:22:31.352Z,6.53
2022-11-30T10:25:28.172Z,6.63
2022-11-30T10:28:46.699Z,10.23
2022-11-30T10:31:12.329Z,27.95
2022-11-30T10:36:38.245Z,11.93
2022-11-30T10:39:46.555Z,7.40
2022-11-30T10:42:21.180Z,6.95
2022-11-30T10:45:03.252Z,7.03
2022-11-30T10:47:40.035Z,6.47
2022-11-30T10:50:13.563Z,6.20
2022-11-30T10:52:50.945Z,6.38
2022-11-30T10:55:35.801Z,5.30
2022-11-30T10:58:15.721Z,4.90
2022-11-30T11:03:26.414Z,6.63
2022-11-30T11:06:03.402Z,7.72
2022-11-30T11:08:33.230Z,7.57
2022-11-30T11:11:00.698Z,8.65
2022-11-30T11:13:43.809Z,9.20
2022-11-30T11:16:13.460Z,7.70
2022-11-30T11:18:57.678Z,8.52
2022-11-30T11:21:26.138Z,9.30
2022-11-30T11:23:57.373Z,9.15
2022-11-30T11:26:28.185Z,22.63
2022-11-30T11:29:02.439Z,36.05
2022-11-30T11:31:46.351Z,25.05
2022-11-30T11:34:27.073Z,14.25
2022-11-30T11:37:13.885Z,9.52
2022-11-30T11:39:41.962Z,7.03
2022-11-30T11:42:22.548Z,7.40
2022-11-30T11:44:56.097Z,10.90
2022-11-30T11:47:29.179Z,12.38
2022-11-30T11:50:57.759Z,13.27
2022-11-30T11:53:24.036Z,12.90
2022-11-30T11:56:26.136Z,11.70
2022-11-30T11:59:34.343Z,10.85
2022-11-30T12:02:14.140Z,26.85
2022-11-30T12:04:51.262Z,21.40
2022-11-30T12:07:40.879Z,14.88
2022-11-30T12:13:25.484Z,12.50
2022-11-30T12:16:14.370Z,13.23
2022-11-30T12:19:08.002Z,12.55
2022-11-30T12:21:54.827Z,11.25
2022-11-30T12:25:13.370Z,14.57
2022-11-30T12:27:57.325Z,12.65
2022-11-30T12:30:44.575Z,9.80
2022-11-30T12:33:34.477Z,12.65
2022-11-30T12:36:09.712Z,11.35
2022-11-30T12:38:55.517Z,11.70
2022-11-30T12:41:53.646Z,10.50
2022-11-30T12:44:33.415Z,6.90
2022-11-30T12:47:37.758Z,7.60
2022-11-30T12:50:25.850Z,22.60
2022-11-30T12:52:55.511Z,28.27
2022-11-30T12:55:39.306Z,17.60
2022-11-30T12:58:06.171Z,14.23
2022-11-30T13:01:05.104Z,8.57
2022-11-30T13:03:48.764Z,6.80
2022-11-30T13:06:26.481Z,7.38
2022-11-30T13:09:11.918Z,7.90
2022-11-30T13:11:45.133Z,8.05
2022-11-30T13:14:17.586Z,6.82
2022-11-30T13:16:47.138Z,6.13
2022-11-30T13:19:22.903Z,6.80
2022-11-30T13:21:59.739Z,6.05
2022-11-30T13:24:43.686Z,6.95
2022-11-30T13:27:24.393Z,6.97
2022-11-30T13:30:18.815Z,6.70
2022-11-30T13:33:02.844Z,7.40
2022-11-30T13:35:30.467Z,6.40
2022-11-30T13:41:05.486Z,12.65
2022-11-30T13:44:00.589Z,25.83
2022-11-30T13:46:30.245Z,10.77
2022-11-30T13:49:21.231Z,7.55
2022-11-30T13:52:07.032Z,6.43
2022-11-30T13:54:42.798Z,6.78
2022-11-30T13:57:17.214Z,5.45
2022-11-30T14:00:43.299Z,6.32
2022-11-30T14:03:22.086Z,5.53
2022-11-30T14:05:54.374Z,6.75
2022-11-30T14:08:21.106Z,6.40
2022-11-30T14:10:50.653Z,7.25
2022-11-30T14:13:22.687Z,20.95
2022-11-30T14:16:01.301Z,15.40
2022-11-30T14:18:40.805Z,9.00
2022-11-30T14:21:15.662Z,6.97
2022-11-30T14:24:03.860Z,6.57
2022-11-30T14:26:44.843Z,8.45
2022-11-30T14:29:21.910Z,9.80
2022-11-30T14:31:55.969Z,10.32
2022-11-30T14:34:37.096Z,9.13
2022-11-30T14:37:13.503Z,9.80
2022-11-30T14:39:49.707Z,9.02
2022-11-30T14:42:28.439Z,9.82
2022-11-30T14:44:58.945Z,11.50
2022-11-30T14:47:36.169Z,13.00
2022-11-30T14:50:09.399Z,9.90
2022-11-30T14:52:59.945Z,8.38
2022-11-30T14:55:52.735Z,7.75
2022-11-30T14:58:38.932Z,9.52
2022-11-30T15:01:20.550Z,8.00
2022-11-30T15:03:51.332Z,8.23
2022-11-30T15:06:22.110Z,9.05
2022-11-30T15:08:56.491Z,8.13
2022-11-30T15:11:23.729Z,8.80
2022-11-30T15:13:55.989Z,8.30
2022-11-30T15:18:57.260Z,8.07
2022-11-30T15:21:27.498Z,9.95
2022-11-30T15:23:59.086Z,12.90
2022-11-30T15:26:32.415Z,13.50
2022-11-30T15:29:26.074Z,13.55
2022-11-30T15:31:54.850Z,12.82
2022-11-30T15:34:45.493Z,17.40
2022-11-30T15:37:14.081Z,19.67
2022-11-30T15:39:47.868Z,24.20
2022-11-30T15:42:24.178Z,19.88
2022-11-30T15:44:52.930Z,12.68
2022-11-30T15:47:40.130Z,11.52
2022-11-30T15:50:29.962Z,11.35
2022-11-30T15:53:00.686Z,11.88
2022-11-30T15:55:52.453Z,10.70
2022-11-30T15:58:32.020Z,14.40
2022-11-30T16:01:16.998Z,12.05
2022-11-30T16:04:03.221Z,11.27
2022-11-30T16:06:44.066Z,12.00
2022-11-30T16:09:21.915Z,13.15
2022-11-30T16:11:54.247Z,15.18
2022-11-30T16:14:21.059Z,13.80
2022-11-30T16:16:49.410Z,12.57
2022-11-30T16:19:17.656Z,13.13
2022-11-30T16:21:46.040Z,10.13
2022-11-30T16:24:15.052Z,9.23
2022-11-30T16:26:51.130Z,12.17
2022-11-30T16:29:18.885Z,11.15
2022-11-30T16:31:47.179Z,10.32
2022-11-30T16:34:15.333Z,9.68
2022-11-30T16:36:42.092Z,11.18
2022-11-30T16:39:12.392Z,12.65
2022-11-30T16:41:41.335Z,11.60
2022-11-30T16:44:13.907Z,11.13
2022-11-30T16:46:42.101Z,11.02
2022-11-30T16:49:10.364Z,12.80
2022-11-30T16:51:38.485Z,12.40
2022-11-30T16:54:05.540Z,13.35
2022-11-30T16:56:33.622Z,12.98
2022-11-30T16:59:00.448Z,14.85
2022-11-30T17:01:43.712Z,14.57
2022-11-30T17:04:22.893Z,12.10
2022-11-30T17:06:55.890Z,12.18
2022-11-30T17:09:27.477Z,12.40
2022-11-30T17:11:54.228Z,13.48
2022-11-30T17:14:21.994Z,14.32
2022-11-30T17:16:50.132Z,12.98
2022-11-30T17:19:18.348Z,13.23
2022-11-30T17:21:45.746Z,15.07
2022-11-30T17:24:14.290Z,13.80
2022-11-30T17:26:44.424Z,16.15
2022-11-30T17:29:11.182Z,14.30
2022-11-30T17:31:38.078Z,18.02
2022-11-30T17:34:05.607Z,15.88
2022-11-30T17:36:34.447Z,19.50
2022-11-30T17:39:08.698Z,18.92
2022-11-30T17:41:37.160Z,19.75
2022-11-30T17:44:05.503Z,19.67
2022-11-30T17:46:34.141Z,16.65
2022-11-30T17:49:00.890Z,16.75
2022-11-30T17:51:29.285Z,16.00
2022-11-30T17:53:58.176Z,14.43
2022-11-30T17:56:26.081Z,13.93
2022-11-30T17:58:54.242Z,14.95
2022-11-30T18:01:27.499Z,15.32
2022-11-30T18:03:56.619Z,14.82
2022-11-30T18:06:23.741Z,14.40
2022-11-30T18:08:52.531Z,14.13
2022-11-30T18:11:22.042Z,13.77
2022-11-30T18:13:53.393Z,14.50
2022-11-30T18:16:27.219Z,16.20
2022-11-30T18:18:56.481Z,15.85
2022-11-30T18:21:25.487Z,14.55
2022-11-30T18:23:55.651Z,13.57
2022-11-30T18:26:25.632Z,14.10
2022-11-30T18:28:54.400Z,14.43
2022-11-30T18:31:22.514Z,14.95
2022-11-30T18:33:53.563Z,16.65
2022-11-30T18:36:22.685Z,16.38
2022-11-30T18:38:49.489Z,15.48
2022-11-30T18:41:16.369Z,15.32
2022-11-30T18:43:44.253Z,14.20
2022-11-30T18:46:12.419Z,14.30
2022-11-30T18:48:40.684Z,13.80
2022-11-30T18:51:11.702Z,12.68
2022-11-30T18:53:40.949Z,11.77
2022-11-30T18:56:10.056Z,12.65
2022-11-30T18:58:37.015Z,14.80
2022-11-30T19:01:13.932Z,29.80
2022-11-30T19:03:42.897Z,35.25
2022-11-30T19:06:10.810Z,21.15
2022-11-30T19:08:40.631Z,14.82
2022-11-30T19:11:09.338Z,13.95
2022-11-30T19:13:36.750Z,13.10
2022-11-30T19:16:13.074Z,14.52
2022-11-30T19:18:41.612Z,16.00
2022-11-30T19:21:10.940Z,18.50
2022-11-30T19:26:08.747Z,13.25
2022-11-30T19:28:37.485Z,17.90
2022-11-30T19:31:11.270Z,18.80
2022-11-30T19:33:41.152Z,18.13
2022-11-30T19:36:13.611Z,19.10
2022-11-30T19:38:44.000Z,21.98
2022-11-30T19:41:12.849Z,21.17
2022-11-30T19:43:42.896Z,18.48
2022-11-30T19:46:14.263Z,14.57
2022-11-30T19:48:44.611Z,14.88
2022-11-30T19:51:18.099Z,17.40
2022-11-30T19:53:46.558Z,19.95
2022-11-30T19:56:17.031Z,19.67
2022-11-30T19:58:45.496Z,19.00
2022-11-30T20:01:16.956Z,17.27
2022-11-30T20:03:45.096Z,17.25
2022-11-30T20:06:12.427Z,14.73
2022-11-30T20:08:39.457Z,14.18
2022-11-30T20:11:10.231Z,15.50
2022-11-30T20:13:37.662Z,15.60
2022-11-30T20:16:11.975Z,14.80
2022-11-30T20:18:45.712Z,16.27
2022-11-30T20:21:24.769Z,14.25
2022-11-30T20:23:54.725Z,14.48
2022-11-30T20:26:29.808Z,31.92
2022-11-30T20:29:01.303Z,19.65
2022-11-30T20:31:30.166Z,16.67
2022-11-30T20:33:58.644Z,14.90
2022-11-30T20:36:25.498Z,16.70
2022-11-30T20:38:52.288Z,15.38
2022-11-30T20:41:22.580Z,14.38
2022-11-30T20:43:50.870Z,17.38
2022-11-30T20:46:24.691Z,18.80
2022-11-30T20:48:53.585Z,15.73
2022-11-30T20:51:33.464Z,20.05
2022-11-30T20:54:03.576Z,21.35
2022-11-30T20:56:30.695Z,21.00
2022-11-30T20:59:01.409Z,28.08
2022-11-30T21:01:28.374Z,27.25
2022-11-30T21:03:55.435Z,25.75
2022-11-30T21:06:23.693Z,19.45
2022-11-30T21:08:50.592Z,19.88
2022-11-30T21:11:20.717Z,22.05
2022-11-30T21:13:49.374Z,18.83
2022-11-30T21:16:25.597Z,18.65
2022-11-30T21:18:58.760Z,18.25
2022-11-30T21:24:00.395Z,15.25
2022-11-30T21:26:39.953Z,15.32
2022-11-30T21:29:12.134Z,14.27
2022-11-30T21:31:41.215Z,18.63
2022-11-30T21:34:08.302Z,16.73
2022-11-30T21:36:35.214Z,17.15
2022-11-30T21:39:08.355Z,15.80
2022-11-30T21:41:38.013Z,18.15
2022-11-30T21:44:06.220Z,19.23
2022-11-30T21:46:33.819Z,17.15
2022-11-30T21:49:02.786Z,18.20
2022-11-30T21:51:31.655Z,18.00
2022-11-30T21:54:03.727Z,18.40
2022-11-30T21:56:34.587Z,22.50
2022-11-30T21:59:03.608Z,19.52
2022-11-30T22:01:35.025Z,18.83
2022-11-30T22:04:04.176Z,20.90
2022-11-30T22:06:35.657Z,18.33
2022-11-30T22:09:09.244Z,21.30
2022-11-30T22:11:41.749Z,19.00
2022-11-30T22:14:13.950Z,19.17
2022-11-30T22:16:42.059Z,19.48
2022-11-30T22:19:11.212Z,16.95
2022-11-30T22:21:38.600Z,15.05
2022-11-30T22:24:09.392Z,16.10
2022-11-30T22:26:39.818Z,16.50
2022-11-30T22:29:15.494Z,16.77
2022-11-30T22:31:46.305Z,19.35
2022-11-30T22:36:43.305Z,14.80
2022-11-30T22:39:14.711Z,17.15
2022-11-30T22:44:17.094Z,15.68
2022-11-30T22:46:46.407Z,17.00
2022-11-30T22:49:20.672Z,18.77
2022-11-30T22:51:50.345Z,17.27
2022-11-30T22:54:18.616Z,18.63
2022-11-30T22:56:47.011Z,19.52
2022-11-30T22:59:15.372Z,16.75
2022-11-30T23:01:45.718Z,20.90
2022-11-30T23:04:19.223Z,20.25
2022-11-30T23:06:50.279Z,18.63
2022-11-30T23:09:21.900Z,20.90
2022-11-30T23:11:49.641Z,19.73
2022-11-30T23:14:18.693Z,20.92
2022-11-30T23:16:48.759Z,19.55
2022-11-30T23:19:16.790Z,18.27
2022-11-30T23:21:45.605Z,18.52
2022-11-30T23:24:15.439Z,18.23
2022-11-30T23:29:13.128Z,14.73
2022-11-30T23:31:43.396Z,16.92
2022-11-30T23:34:21.638Z,16.85
2022-11-30T23:36:50.966Z,16.13
2022-11-30T23:39:20.271Z,16.15
2022-11-30T23:41:47.461Z,17.65
2022-11-30T23:44:16.305Z,19.42
2022-11-30T23:46:43.231Z,18.35
2022-11-30T23:49:13.899Z,17.05
2022-11-30T23:51:41.214Z,17.77
2022-11-30T23:54:09.159Z,17.00
2022-11-30T23:56:37.204Z,18.52
2022-11-30T23:59:03.987Z,18.05
